Hauptseite
METAR-TAF:

METAR-TAF

Flughäfen :

Malé, Hulhule Island, Malediven

Malé International Airport

Breite: 04-12N, Länge: 073-32E, Höhe: 2 m

Beobachtung

Neuester Wetterbericht von vor 1 Stunde und 6 Minuten, um 13:00 UTC
Wind 9 kt aus Ost/Nordost
Temperatur 30°C
Luftfeuchtigkeit 75%
Luftdruck 1009 hPa
Sichtweite 10 km oder mehr
Leicht bewölkt in der Höhe von 1800 ft
Durchbrochene Bewölkung in der Höhe von 29000 ft

METAR: VRMM 241300Z 07009KT 9999 FEW018 BKN290 30/25 Q1009 NOSIG

Zeit: 19:06 (14:06 UTC)

Prognose

Neuester Wetterbericht von vor 3 Stunden und 6 Minuten, um 11:00 UTC
Gültige Prognose vom 24 um 12 UTC bis 25 um 18 UTC
Wind 6 kt aus Ost/Nordost
Sichtweite 10 km oder mehr
Leicht bewölkt in der Höhe von 1800 ft
Zeitweise
vom 24 um 18 UTC bis 24 um 24 UTC
Leicht bewölkt in der Höhe von 1900 ft, Kumulonimbus.

TAF: VRMM 241100Z 2412/2518 07006KT 9999 FEW018 TEMPO 2418/2424 FEW019CB

Wetterbeobachtungen und Prognosen von mehr als 4000 Flughäfen (METAR und TAF Bericht).

Die verfügbaren Stationen werden durch gelbe und rote Markierungen auf der Karte dargestellt.

Führen Sie die Maus auf sie, um den Namen der Station zu sehen.

Darauf klicken, um die Beobachtung von Wetterbeobachtungen und Prognosen zu sehen.

Um die Karte zu ändern : klicken Sie auf den grünen Tasten mit einem schwarzen Kreuz Zum Vergrößern, auf den grünen Button mit einem Gedankenstrich zu verkleinern, oder auf die grünen Pfeile für benachbarte Karten.


METAR-TAF: